Schneifelwetter: Wetterstation Hallschlag, 537 m . NN
Wetterdaten: Samstag, 07.04.2007
Datum Zeit Temp. A. Temp. 2 Feuchte A. Luftdruck Regen Wind Richtung Richtung Sonnenschein Helligkeit T Regen Taupunkt Windchill
07.04.2007 00:00 2,4 C 0,2 C 77 % 1020 hPa 0,0 l/m 0,0 km/h (0 Bft) W 270 0 min 0 lux 0,00 min -1,2 C 2,4 C
07.04.2007 00:15 2,3 C 0,0 C 78 % 1020 hPa 0,0 l/m 0,0 km/h (0 Bft) W 270 0 min 0 lux 0,00 min -1,1 C 2,3 C
07.04.2007 00:30 2,0 C -0,1 C 78 % 1020 hPa 0,0 l/m 0,0 km/h (0 Bft) W 270 0 min 0 lux 0,00 min -1,4 C 2,0 C
07.04.2007 00:45 1,8 C -0,3 C 79 % 1020 hPa 0,0 l/m 0,0 km/h (0 Bft) W 270 0 min 0 lux 0,00 min -1,4 C 1,8 C
07.04.2007 01:00 1,7 C -0,6 C 79 % 1020 hPa 0,0 l/m 0,0 km/h (0 Bft) W 270 0 min 0 lux 0,00 min -1,5 C 1,7 C
07.04.2007 01:15 1,4 C -0,8 C 80 % 1020 hPa 0,0 l/m 0,0 km/h (0 Bft) W 270 0 min 0 lux 0,00 min -1,7 C 1,4 C
07.04.2007 01:30 1,3 C -0,6 C 81 % 1020 hPa 0,0 l/m 0,0 km/h (0 Bft) W 270 0 min 0 lux 0,00 min -1,6 C 1,3 C
07.04.2007 01:45 1,3 C -0,9 C 81 % 1020 hPa 0,0 l/m 0,0 km/h (0 Bft) W 270 0 min 0 lux 0,00 min -1,6 C 1,3 C
07.04.2007 02:00 1,2 C -1,0 C 82 % 1020 hPa 0,0 l/m 0,0 km/h (0 Bft) W 270 0 min 0 lux 0,00 min -1,5 C 1,2 C
07.04.2007 02:15 1,0 C -1,3 C 82 % 1020 hPa 0,0 l/m 0,0 km/h (0 Bft) W 270 0 min 0 lux 0,00 min -1,7 C 1,0 C
07.04.2007 02:30 0,7 C -1,4 C 82 % 1020 hPa 0,0 l/m 0,0 km/h (0 Bft) W 270 0 min 0 lux 0,00 min -2,0 C 0,7 C
07.04.2007 02:45 0,8 C -1,3 C 83 % 1020 hPa 0,0 l/m 0,0 km/h (0 Bft) W 270 0 min 0 lux 0,00 min -1,8 C 0,8 C
07.04.2007 03:00 0,7 C -1,0 C 83 % 1020 hPa 0,0 l/m 0,0 km/h (0 Bft) W 270 0 min 0 lux 0,00 min -1,8 C 0,7 C
07.04.2007 03:15 0,6 C -1,3 C 83 % 1020 hPa 0,0 l/m 0,0 km/h (0 Bft) W 270 0 min 0 lux 0,00 min -1,9 C 0,6 C
07.04.2007 03:30 0,3 C -1,5 C 83 % 1020 hPa 0,0 l/m 0,0 km/h (0 Bft) W 270 0 min 0 lux 0,00 min -2,2 C 0,3 C
07.04.2007 03:45 0,2 C -1,8 C 83 % 1019 hPa 0,0 l/m 0,0 km/h (0 Bft) W 265 0 min 0 lux 0,00 min -2,3 C 0,2 C
07.04.2007 04:00 -0,2 C -1,9 C 84 % 1019 hPa 0,0 l/m 0,0 km/h (0 Bft) W 270 0 min 0 lux 0,00 min -2,6 C -0,2 C
07.04.2007 04:15 -0,4 C -2,2 C 84 % 1020 hPa 0,0 l/m 0,0 km/h (0 Bft) W 270 0 min 0 lux 0,00 min -2,8 C -0,4 C
07.04.2007 04:30 -0,4 C -1,9 C 85 % 1020 hPa 0,0 l/m 0,0 km/h (0 Bft) W 270 0 min 0 lux 0,00 min -2,6 C -0,4 C
07.04.2007 04:45 -0,2 C -1,5 C 86 % 1020 hPa 0,0 l/m 0,0 km/h (0 Bft) W 270 0 min 0 lux 0,00 min -2,3 C -0,2 C
07.04.2007 05:00 0,4 C -0,6 C 87 % 1020 hPa 0,0 l/m 0,0 km/h (0 Bft) W 270 0 min 0 lux 0,00 min -1,5 C 0,4 C
07.04.2007 05:15 1,2 C 0,1 C 87 % 1020 hPa 0,0 l/m 0,0 km/h (0 Bft) W 270 0 min 0 lux 0,00 min -0,7 C 1,2 C
07.04.2007 05:30 1,8 C 0,7 C 87 % 1020 hPa 0,0 l/m 3,0 km/h (1 Bft) NW22.5 325 0 min 0 lux 0,00 min -0,1 C 1,8 C
07.04.2007 05:45 3,5 C 2,1 C 91 % 1020 hPa 0,0 l/m 13,8 km/h (3 Bft) N-NO22.5 15 0 min 0 lux 0,00 min 2,2 C -2,1 C
07.04.2007 06:00 4,1 C 2,9 C 90 % 1020 hPa 0,0 l/m 14,6 km/h (3 Bft) N-NO22.5 20 0 min 0 lux 0,00 min 2,6 C -1,8 C
07.04.2007 06:15 4,4 C 3,3 C 88 % 1020 hPa 0,0 l/m 15,4 km/h (3 Bft) N22.5 10 0 min 0 lux 0,00 min 2,6 C -1,9 C
07.04.2007 06:30 4,4 C 3,4 C 87 % 1020 hPa 0,0 l/m 16,8 km/h (3 Bft) N67.5 5 0 min 0 lux 0,00 min 2,4 C -2,5 C
07.04.2007 06:45 4,3 C 3,5 C 86 % 1020 hPa 0,0 l/m 17,3 km/h (3 Bft) N67.5 5 0 min 47 lux 0,00 min 2,2 C -2,9 C
07.04.2007 07:00 4,5 C 3,6 C 86 % 1020 hPa 0,0 l/m 18,7 km/h (3 Bft) N-NO67.5 20 0 min 191 lux 0,00 min 2,4 C -3,3 C
07.04.2007 07:15 4,4 C 3,7 C 85 % 1020 hPa 0,0 l/m 19,8 km/h (3 Bft) N45 10 0 min 362 lux 0,00 min 2,1 C -3,9 C
07.04.2007 07:31 4,4 C 3,8 C 85 % 1021 hPa 0,0 l/m 17,6 km/h (3 Bft) N-NO67.5 15 0 min 1,19 klux 0,00 min 2,1 C -2,9 C
07.04.2007 07:46 4,5 C 3,8 C 84 % 1021 hPa 0,0 l/m 17,3 km/h (3 Bft) N22.5 10 0 min 1,90 klux 0,00 min 2,0 C -2,7 C
07.04.2007 08:01 4,6 C 3,9 C 84 % 1021 hPa 0,0 l/m 20,1 km/h (4 Bft) N45 360 0 min 4,64 klux 0,00 min 2,1 C -3,7 C
07.04.2007 08:15 4,7 C 3,9 C 84 % 1021 hPa 0,0 l/m 17,5 km/h (3 Bft) N-NO45 20 0 min 7,25 klux 0,00 min 2,2 C -2,5 C
07.04.2007 08:30 4,7 C 3,9 C 84 % 1021 hPa 0,0 l/m 16,8 km/h (3 Bft) N67.5 5 0 min 9,6 klux 0,00 min 2,2 C -2,2 C
07.04.2007 08:45 5,1 C 4,5 C 83 % 1021 hPa 0,0 l/m 21,0 km/h (4 Bft) N-NO22.5 20 0 min 13,9 klux 0,00 min 2,5 C -3,4 C
07.04.2007 09:01 5,2 C 4,6 C 82 % 1021 hPa 0,0 l/m 22,4 km/h (4 Bft) N67.5 5 0 min 23,5 klux 0,00 min 2,4 C -3,8 C
07.04.2007 09:15 5,2 C 4,8 C 82 % 1021 hPa 0,0 l/m 21,5 km/h (4 Bft) N22.5 5 0 min 17,8 klux 0,00 min 2,4 C -3,5 C
07.04.2007 09:30 5,3 C 5,2 C 82 % 1021 hPa 0,0 l/m 23,0 km/h (4 Bft) N67.5 5 0 min 39,2 klux 0,00 min 2,5 C -3,9 C
07.04.2007 09:45 6,6 C 6,4 C 76 % 1021 hPa 0,0 l/m 26,0 km/h (4 Bft) N22.5 360 15 min 51,3 klux 0,00 min 2,7 C -3,1 C
07.04.2007 10:00 7,1 C 7,0 C 69 % 1021 hPa 0,0 l/m 29,1 km/h (5 Bft) N67.5 5 15 min 51,4 klux 0,00 min 1,8 C -3,2 C
07.04.2007 10:16 7,6 C 7,7 C 70 % 1021 hPa 0,0 l/m 30,5 km/h (5 Bft) N67.5 360 16 min 63,3 klux 0,00 min 2,5 C -2,8 C
07.04.2007 10:31 8,4 C 8,6 C 65 % 1021 hPa 0,0 l/m 25,1 km/h (4 Bft) N-NO67.5 15 15 min 67,0 klux 0,00 min 2,2 C -0,4 C
07.04.2007 10:45 7,8 C 8,3 C 64 % 1021 hPa 0,0 l/m 26,8 km/h (4 Bft) N22.5 5 14 min 73,6 klux 0,00 min 1,4 C -1,6 C
07.04.2007 11:00 7,4 C 7,9 C 65 % 1022 hPa 0,0 l/m 22,6 km/h (4 Bft) N67.5 355 15 min 72,4 klux 0,00 min 1,3 C -1,0 C
07.04.2007 11:15 8,6 C 10,3 C 65 % 1022 hPa 0,0 l/m 26,0 km/h (4 Bft) N-NO67.5 30 15 min 91,9 klux 0,00 min 2,4 C -0,3 C
07.04.2007 11:30 8,8 C 10,4 C 61 % 1022 hPa 0,0 l/m 26,0 km/h (4 Bft) N-NO45 20 15 min 62,3 klux 0,00 min 1,7 C -0,1 C
07.04.2007 11:46 8,5 C 10,6 C 62 % 1022 hPa 0,0 l/m 22,2 km/h (4 Bft) N22.5 5 16 min 46,9 klux 0,00 min 1,6 C 0,6 C
07.04.2007 12:00 8,8 C 11,2 C 63 % 1022 hPa 0,0 l/m 24,9 km/h (4 Bft) N-NO22.5 20 14 min 98,5 klux 0,00 min 2,2 C 0,2 C
07.04.2007 12:15 8,5 C 10,8 C 59 % 1022 hPa 0,0 l/m 28,5 km/h (4 Bft) N67.5 5 15 min 87,4 klux 0,00 min 1,0 C -1,1 C
07.04.2007 12:30 8,7 C 11,1 C 61 % 1022 hPa 0,0 l/m 23,2 km/h (4 Bft) N45 5 0 min 42,0 klux 0,00 min 1,6 C 0,6 C
07.04.2007 12:45 8,6 C 11,0 C 60 % 1022 hPa 0,0 l/m 28,9 km/h (5 Bft) N67.5 5 15 min 96,2 klux 0,00 min 1,3 C -1,1 C
07.04.2007 13:01 8,5 C 10,7 C 61 % 1022 hPa 0,0 l/m 22,5 km/h (4 Bft) N45 360 0 min 32,5 klux 0,00 min 1,4 C 0,5 C
07.04.2007 13:16 8,0 C 10,2 C 62 % 1022 hPa 0,0 l/m 25,4 km/h (4 Bft) N22.5 5 0 min 29,5 klux 0,00 min 1,2 C -1,0 C
07.04.2007 13:30 8,2 C 10,2 C 63 % 1022 hPa 0,0 l/m 22,3 km/h (4 Bft) N45 350 0 min 35,6 klux 0,00 min 1,6 C 0,2 C
07.04.2007 13:45 8,1 C 10,1 C 63 % 1022 hPa 0,0 l/m 25,6 km/h (4 Bft) N-NO67.5 30 0 min 32,3 klux 0,00 min 1,5 C -0,9 C
07.04.2007 14:00 8,1 C 9,9 C 63 % 1022 hPa 0,0 l/m 24,1 km/h (4 Bft) N-NO22.5 25 0 min 29,2 klux 0,00 min 1,5 C -0,5 C
07.04.2007 14:15 7,5 C 8,9 C 65 % 1022 hPa 0,0 l/m 23,7 km/h (4 Bft) N-NO45 30 0 min 16,7 klux 0,00 min 1,4 C -1,2 C
07.04.2007 14:31 7,3 C 8,5 C 64 % 1022 hPa 0,0 l/m 27,3 km/h (4 Bft) NO67.5 40 0 min 19,6 klux 0,00 min 1,0 C -2,5 C
07.04.2007 14:45 7,6 C 8,8 C 64 % 1022 hPa 0,0 l/m 20,9 km/h (4 Bft) N67.5 10 0 min 29,0 klux 0,00 min 1,2 C -0,1 C
07.04.2007 15:00 8,1 C 9,5 C 61 % 1022 hPa 0,0 l/m 26,2 km/h (4 Bft) N-NO22.5 25 0 min 36,0 klux 0,00 min 1,0 C -1,1 C
07.04.2007 15:15 7,6 C 8,6 C 63 % 1022 hPa 0,0 l/m 22,8 km/h (4 Bft) N22.5 5 0 min 15,7 klux 0,00 min 1,0 C -0,8 C
07.04.2007 15:30 7,2 C 8,0 C 66 % 1022 hPa 0,0 l/m 28,2 km/h (4 Bft) N-NO45 15 0 min 15,9 klux 0,00 min 1,3 C -2,8 C
07.04.2007 15:46 7,0 C 7,6 C 66 % 1022 hPa 0,0 l/m 22,0 km/h (4 Bft) N-NO45 15 0 min 14,1 klux 0,00 min 1,1 C -1,3 C
07.04.2007 16:00 6,8 C 7,3 C 66 % 1022 hPa 0,0 l/m 22,1 km/h (4 Bft) N-NO22.5 15 0 min 14,3 klux 0,00 min 0,9 C -1,6 C
07.04.2007 16:15 7,1 C 7,6 C 67 % 1022 hPa 0,0 l/m 22,6 km/h (4 Bft) NO22.5 35 0 min 16,7 klux 0,00 min 1,4 C -1,4 C
07.04.2007 16:30 6,7 C 7,0 C 69 % 1022 hPa 0,0 l/m 21,7 km/h (4 Bft) N45 10 0 min 9,5 klux 0,00 min 1,4 C -1,6 C
07.04.2007 16:45 6,5 C 6,7 C 69 % 1022 hPa 0,0 l/m 23,6 km/h (4 Bft) N67.5 360 0 min 7,49 klux 0,00 min 1,2 C -2,5 C
07.04.2007 17:01 6,4 C 6,5 C 69 % 1022 hPa 0,0 l/m 24,6 km/h (4 Bft) N-NO45 15 0 min 7,93 klux 0,00 min 1,1 C -2,9 C
07.04.2007 17:15 6,2 C 6,3 C 70 % 1022 hPa 0,0 l/m 22,3 km/h (4 Bft) N67.5 350 0 min 7,49 klux 0,00 min 1,1 C -2,4 C
07.04.2007 17:30 6,2 C 6,3 C 70 % 1022 hPa 0,0 l/m 30,3 km/h (5 Bft) N45 10 0 min 8,80 klux 0,00 min 1,1 C -4,8 C
07.04.2007 17:45 6,3 C 6,3 C 70 % 1022 hPa 0,0 l/m 22,0 km/h (4 Bft) N22.5 5 0 min 12,1 klux 0,00 min 1,2 C -2,2 C
07.04.2007 18:00 6,7 C 6,8 C 69 % 1022 hPa 0,0 l/m 21,6 km/h (4 Bft) N-NO67.5 15 0 min 14,5 klux 0,00 min 1,4 C -1,5 C
07.04.2007 18:16 6,6 C 6,6 C 68 % 1022 hPa 0,0 l/m 23,5 km/h (4 Bft) N-NO22.5 20 0 min 10,1 klux 0,00 min 1,1 C -2,3 C
07.04.2007 18:31 6,3 C 6,2 C 69 % 1022 hPa 0,0 l/m 28,1 km/h (4 Bft) N-NO45 25 0 min 4,23 klux 0,00 min 1,0 C -4,1 C
07.04.2007 18:45 6,4 C 6,2 C 69 % 1022 hPa 0,0 l/m 25,6 km/h (4 Bft) N-NO45 25 0 min 8,59 klux 0,00 min 1,1 C -3,2 C
07.04.2007 19:00 6,3 C 6,1 C 70 % 1022 hPa 0,0 l/m 27,2 km/h (4 Bft) N-NO67.5 20 0 min 7,44 klux 0,00 min 1,2 C -3,8 C
07.04.2007 19:15 6,1 C 6,0 C 70 % 1022 hPa 0,0 l/m 25,0 km/h (4 Bft) N-NO22.5 25 0 min 5,67 klux 0,00 min 1,0 C -3,5 C
07.04.2007 19:30 6,2 C 5,7 C 70 % 1022 hPa 0,0 l/m 28,6 km/h (4 Bft) N-NO45 30 0 min 9,6 klux 0,00 min 1,1 C -4,3 C
07.04.2007 19:46 5,7 C 5,1 C 70 % 1022 hPa 0,0 l/m 21,2 km/h (4 Bft) N-NO22.5 30 0 min 4,56 klux 0,00 min 0,7 C -2,7 C
07.04.2007 20:00 5,1 C 4,0 C 72 % 1022 hPa 0,0 l/m 12,8 km/h (3 Bft) N-NO22.5 25 0 min 2,45 klux 0,00 min 0,5 C 0,4 C
07.04.2007 20:15 4,4 C 3,0 C 73 % 1022 hPa 0,0 l/m 9,8 km/h (2 Bft) N-NO45 15 0 min 1,13 klux 0,00 min -0,0 C 1,6 C
07.04.2007 20:30 4,0 C 2,0 C 74 % 1023 hPa 0,0 l/m 8,2 km/h (2 Bft) N22.5 5 0 min 448 lux 0,00 min -0,2 C 2,4 C
07.04.2007 20:45 3,7 C 1,6 C 75 % 1023 hPa 0,0 l/m 8,2 km/h (2 Bft) N 10 0 min 75 lux 0,00 min -0,3 C 2,1 C
07.04.2007 21:01 3,4 C 1,3 C 76 % 1023 hPa 0,0 l/m 10,0 km/h (2 Bft) N22.5 5 0 min 9 lux 0,00 min -0,4 C 0,3 C
07.04.2007 21:16 3,2 C 1,0 C 77 % 1023 hPa 0,0 l/m 10,0 km/h (2 Bft) N22.5 5 0 min 0 lux 0,00 min -0,4 C 0,1 C
07.04.2007 21:30 2,9 C 0,4 C 78 % 1023 hPa 0,0 l/m 8,3 km/h (2 Bft) N22.5 350 0 min 0 lux 0,00 min -0,5 C 1,1 C
07.04.2007 21:45 2,6 C -0,1 C 78 % 1023 hPa 0,0 l/m 9,4 km/h (2 Bft) N 360 0 min 0 lux 0,00 min -0,8 C -0,1 C
07.04.2007 22:00 2,1 C -0,7 C 77 % 1023 hPa 0,0 l/m 6,5 km/h (2 Bft) N 5 0 min 0 lux 0,00 min -1,5 C 2,0 C
07.04.2007 22:15 1,2 C -1,4 C 77 % 1023 hPa 0,0 l/m 0,2 km/h (0 Bft) N 10 0 min 0 lux 0,00 min -2,4 C 1,2 C
07.04.2007 22:30 0,6 C -1,8 C 78 % 1023 hPa 0,0 l/m 0,0 km/h (0 Bft) N 10 0 min 0 lux 0,00 min -2,8 C 0,6 C
07.04.2007 22:46 0,0 C -2,2 C 80 % 1023 hPa 0,0 l/m 0,0 km/h (0 Bft) N 10 0 min 0 lux 0,00 min -3,0 C 0,0 C
07.04.2007 23:01 -0,5 C -2,8 C 81 % 1023 hPa 0,0 l/m 0,0 km/h (0 Bft) N 355 0 min 0 lux 0,00 min -3,3 C -0,5 C
07.04.2007 23:15 -0,9 C -3,0 C 81 % 1023 hPa 0,0 l/m 0,0 km/h (0 Bft) N 355 0 min 0 lux 0,00 min -3,7 C -0,9 C
07.04.2007 23:30 -1,2 C -3,1 C 82 % 1023 hPa 0,0 l/m 0,0 km/h (0 Bft) N 355 0 min 0 lux 0,00 min -3,9 C -1,2 C
07.04.2007 23:45 -1,5 C -3,3 C 82 % 1023 hPa 0,0 l/m 0,0 km/h (0 Bft) N 355 0 min 0 lux 0,00 min -4,2 C -1,5 C
07.04.2007 23:54 -1,7 C -3,4 C 83 % 1023 hPa 0,0 l/m 2,4 km/h (1 Bft) NW22.5 320 0 min 0 lux 0,00 min -4,2 C -1,7 C
_ Min-Zeit 23:54 23:54 12:15 03:45 - 00:00 - - - - - 23:54 17:30
Minimum _ -1,7 C -3,4 C 59 % 1019 hPa - 0,0 km/h (0 Bft) - - - - - -4,2 C -4,8 C
_ Max-Zeit 11:30 12:00 05:45 20:30 00:00 10:16 - - 10:16 12:00 00:00 09:45 00:00
Maximum _ 8,8 C 11,2 C 91 % 1023 hPa 0,0 l/m 30,5 km/h
N (5 Bft)
- - 16 min 98,5 klux 0,00 min 2,7 C 2,4 C
Durchschnitt _ 4,4 C 3,8 C 75 % 1022 hPa #0,0 l/m 14,5 km/h (3 Bft) N - #3:00 h 15,3 klux #0 min. 0,2 C -0,9 C